Time;durP1;ratioP1;P1;durP2;ratioP2;P2;SDS_P1;SDS_P2;PMS_P1;PMS_P2;Temp;Humidity;BMP_temperature;BMP_pressure;BME280_temperature;BME280_humidity;BME280_pressure;Samples;Min_cycle;Max_cycle;Signal;HPM_P1;HPM_P2
2021/12/19 00:01:01;;;;;;;7.35;4.20;;;;;;;;;;5053136;28;20074;-35
2021/12/19 00:08:52;;;;;;;7.18;4.10;;;;;;;;;;5052725;28;20103;-36
2021/12/19 00:11:22;;;;;;;9.45;3.78;;;;;;;;;;5052678;28;20035;-36
2021/12/19 00:13:48;;;;;;;10.23;4.10;;;;;;;;;;5052784;28;20102;-36
2021/12/19 00:16:14;;;;;;;6.93;3.22;;;;;;;;;;5052520;28;20440;-36
2021/12/19 00:18:42;;;;;;;12.05;4.75;;;;;;;;;;5052641;28;20029;-36
2021/12/19 00:21:10;;;;;;;10.10;5.13;;;;;;;;;;5052384;28;20032;-36
2021/12/19 00:23:36;;;;;;;7.53;4.45;;;;;;;;;;5052457;28;20028;-36
2021/12/19 00:26:01;;;;;;;6.75;4.07;;;;;;;;;;5052464;28;20175;-36
2021/12/19 00:28:27;;;;;;;12.80;5.35;;;;;;;;;;5052213;28;20068;-36
2021/12/19 00:30:53;;;;;;;11.02;4.60;;;;;;;;;;5052616;28;20037;-36
2021/12/19 00:33:18;;;;;;;10.88;5.07;;;;;;;;;;5052118;28;20033;-35
2021/12/19 00:35:44;;;;;;;9.27;4.88;;;;;;;;;;5050889;28;20048;-36
2021/12/19 00:38:09;;;;;;;9.65;4.78;;;;;;;;;;5051344;28;20075;-35
2021/12/19 00:40:36;;;;;;;13.57;5.43;;;;;;;;;;5051909;28;20053;-36
2021/12/19 00:43:05;;;;;;;13.27;4.80;;;;;;;;;;5052339;28;20044;-36
2021/12/19 00:45:33;;;;;;;13.82;5.43;;;;;;;;;;5051951;28;20037;-35
2021/12/19 00:48:00;;;;;;;8.38;4.45;;;;;;;;;;5052249;28;20017;-36
2021/12/19 00:50:26;;;;;;;6.38;4.60;;;;;;;;;;5052117;28;20064;-35
2021/12/19 00:52:52;;;;;;;10.57;4.15;;;;;;;;;;5051995;28;20021;-36
2021/12/19 00:55:18;;;;;;;7.70;4.93;;;;;;;;;;5051967;28;20039;-36
2021/12/19 00:57:44;;;;;;;13.30;4.72;;;;;;;;;;5051816;28;20037;-36
2021/12/19 01:00:11;;;;;;;12.30;4.80;;;;;;;;;;5051756;28;20037;-35
2021/12/19 01:02:36;;;;;;;7.60;4.93;;;;;;;;;;5051629;28;20032;-36
2021/12/19 01:05:03;;;;;;;5.05;4.13;;;;;;;;;;5051712;28;20037;-37
2021/12/19 01:07:28;;;;;;;7.15;4.10;;;;;;;;;;5051877;28;20425;-36
2021/12/19 01:09:54;;;;;;;8.38;4.45;;;;;;;;;;5051599;28;20033;-36
2021/12/19 01:12:19;;;;;;;11.45;4.88;;;;;;;;;;5051431;28;20028;-36
2021/12/19 01:14:45;;;;;;;10.10;5.38;;;;;;;;;;5051670;28;20041;-35
2021/12/19 01:17:10;;;;;;;9.65;5.03;;;;;;;;;;5051707;28;20094;-36
2021/12/19 01:19:36;;;;;;;6.82;4.13;;;;;;;;;;5051643;28;20028;-35
2021/12/19 01:22:02;;;;;;;12.40;5.32;;;;;;;;;;5051425;28;20376;-36
2021/12/19 01:24:28;;;;;;;7.82;3.72;;;;;;;;;;5051251;28;20036;-35
2021/12/19 01:26:53;;;;;;;6.70;3.83;;;;;;;;;;5051442;28;20037;-35
2021/12/19 01:29:19;;;;;;;6.75;3.47;;;;;;;;;;5050029;28;20061;-35
2021/12/19 01:31:44;;;;;;;6.85;4.60;;;;;;;;;;5051187;28;20037;-36
2021/12/19 01:34:13;;;;;;;7.75;3.95;;;;;;;;;;5051153;28;20095;-35
2021/12/19 01:36:40;;;;;;;8.93;3.80;;;;;;;;;;5051223;28;20455;-36
2021/12/19 01:39:06;;;;;;;10.27;4.95;;;;;;;;;;5050988;28;20499;-36
2021/12/19 01:41:31;;;;;;;5.63;3.50;;;;;;;;;;5051420;28;20049;-35
2021/12/19 01:43:57;;;;;;;8.65;4.25;;;;;;;;;;5051192;28;20037;-36
2021/12/19 01:46:22;;;;;;;6.72;4.45;;;;;;;;;;5051291;28;20028;-35
2021/12/19 01:48:47;;;;;;;6.60;3.75;;;;;;;;;;5053327;28;20055;-36
2021/12/19 01:51:13;;;;;;;7.88;3.40;;;;;;;;;;5055363;28;20025;-36
2021/12/19 01:53:38;;;;;;;7.75;3.95;;;;;;;;;;5055105;28;20495;-36
2021/12/19 01:56:05;;;;;;;16.58;5.05;;;;;;;;;;5055264;28;20017;-36
2021/12/19 01:58:31;;;;;;;9.40;4.35;;;;;;;;;;5055396;28;20041;-35
2021/12/19 02:00:57;;;;;;;10.30;4.53;;;;;;;;;;5055083;28;20542;-35
2021/12/19 02:03:23;;;;;;;6.07;3.67;;;;;;;;;;5055345;28;20037;-35
2021/12/19 02:05:48;;;;;;;8.75;4.10;;;;;;;;;;5054999;28;20024;-39
2021/12/19 02:08:14;;;;;;;11.98;4.22;;;;;;;;;;5054981;28;20036;-36
2021/12/19 02:10:41;;;;;;;11.30;4.78;;;;;;;;;;5054899;28;20021;-35
2021/12/19 02:13:07;;;;;;;8.40;2.80;;;;;;;;;;5055228;28;20037;-35
2021/12/19 02:15:34;;;;;;;4.97;3.15;;;;;;;;;;5055005;28;20029;-35
2021/12/19 02:18:01;;;;;;;7.75;3.75;;;;;;;;;;5055112;28;20044;-36
2021/12/19 02:20:31;;;;;;;6.28;3.42;;;;;;;;;;5054648;28;20040;-35
2021/12/19 02:22:57;;;;;;;4.78;3.28;;;;;;;;;;5054995;28;20039;-35
2021/12/19 02:25:22;;;;;;;18.85;5.55;;;;;;;;;;5054956;28;20021;-35
2021/12/19 02:27:48;;;;;;;9.70;4.03;;;;;;;;;;5054623;28;20029;-35
2021/12/19 02:30:13;;;;;;;19.70;5.78;;;;;;;;;;5054937;28;20017;-37
2021/12/19 02:32:40;;;;;;;8.20;4.75;;;;;;;;;;5053627;28;20589;-35
2021/12/19 02:35:08;;;;;;;9.43;4.63;;;;;;;;;;5054308;28;20036;-36
2021/12/19 02:40:28;;;;;;;8.88;4.35;;;;;;;;;;5054258;28;20580;-36
2021/12/19 02:48:27;;;;;;;6.50;4.30;;;;;;;;;;5052891;28;20053;-36
2021/12/19 02:50:54;;;;;;;11.02;4.03;;;;;;;;;;5054144;28;20029;-35
2021/12/19 02:53:33;;;;;;;12.60;5.22;;;;;;;;;;5054038;28;20039;-36
2021/12/19 02:56:03;;;;;;;6.68;4.22;;;;;;;;;;5054204;28;20044;-35
2021/12/19 02:58:29;;;;;;;13.55;4.32;;;;;;;;;;5054220;28;20025;-35
2021/12/19 03:00:55;;;;;;;6.88;3.53;;;;;;;;;;5053208;28;20116;-35
2021/12/19 03:03:20;;;;;;;8.98;4.43;;;;;;;;;;5054177;28;20021;-35
2021/12/19 03:05:46;;;;;;;9.25;4.22;;;;;;;;;;5053976;28;20361;-35
2021/12/19 03:08:12;;;;;;;5.00;3.28;;;;;;;;;;5053871;28;20100;-36
2021/12/19 03:18:28;;;;;;;6.78;3.70;;;;;;;;;;5053669;28;20029;-36
2021/12/19 03:20:53;;;;;;;4.60;3.58;;;;;;;;;;5053942;28;20075;-35
2021/12/19 03:23:18;;;;;;;9.25;4.55;;;;;;;;;;5054010;28;20025;-35
2021/12/19 03:25:44;;;;;;;7.22;3.85;;;;;;;;;;5053710;28;20047;-35
2021/12/19 03:28:11;;;;;;;8.13;3.72;;;;;;;;;;5053530;28;20481;-35
2021/12/19 03:30:37;;;;;;;7.53;4.32;;;;;;;;;;5053361;28;20032;-36
2021/12/19 03:33:02;;;;;;;4.35;2.90;;;;;;;;;;5053413;28;20087;-35
2021/12/19 03:35:30;;;;;;;6.20;2.88;;;;;;;;;;5053527;28;20391;-35
2021/12/19 03:37:56;;;;;;;6.40;2.88;;;;;;;;;;5053675;28;20064;-35
2021/12/19 03:40:23;;;;;;;7.95;3.88;;;;;;;;;;5052975;28;20044;-36
2021/12/19 03:42:51;;;;;;;6.47;3.22;;;;;;;;;;5053564;28;20150;-36
2021/12/19 03:45:19;;;;;;;6.78;3.22;;;;;;;;;;5053463;28;20017;-35
2021/12/19 03:47:46;;;;;;;11.30;4.03;;;;;;;;;;5053008;28;20033;-35
2021/12/19 03:50:13;;;;;;;5.05;3.80;;;;;;;;;;5053111;28;20024;-35
2021/12/19 03:52:39;;;;;;;6.15;3.60;;;;;;;;;;5053292;28;20063;-35
2021/12/19 03:55:05;;;;;;;7.32;3.88;;;;;;;;;;5052882;28;20487;-35
2021/12/19 03:57:30;;;;;;;5.22;3.75;;;;;;;;;;5052898;28;20029;-36
2021/12/19 03:59:56;;;;;;;8.63;3.90;;;;;;;;;;5052976;28;20025;-35
2021/12/19 04:02:26;;;;;;;4.95;3.15;;;;;;;;;;5052747;28;20021;-35
2021/12/19 04:04:53;;;;;;;6.68;4.13;;;;;;;;;;5052849;28;20068;-36
2021/12/19 04:07:19;;;;;;;8.65;3.55;;;;;;;;;;5052823;28;20497;-36
2021/12/19 04:09:44;;;;;;;5.38;3.72;;;;;;;;;;5052676;28;20029;-36
2021/12/19 04:12:10;;;;;;;7.68;3.75;;;;;;;;;;5052869;28;20040;-36
2021/12/19 04:14:35;;;;;;;8.10;3.78;;;;;;;;;;5052451;28;20037;-35
2021/12/19 04:17:01;;;;;;;11.27;4.13;;;;;;;;;;5052827;28;20076;-36
2021/12/19 04:19:27;;;;;;;7.65;3.50;;;;;;;;;;5052528;28;20499;-36
2021/12/19 04:21:53;;;;;;;7.03;4.63;;;;;;;;;;5052457;28;20037;-36
2021/12/19 04:24:18;;;;;;;9.25;5.03;;;;;;;;;;5052775;28;20039;-36
2021/12/19 04:26:44;;;;;;;8.20;4.22;;;;;;;;;;5052301;28;20468;-35
2021/12/19 04:29:10;;;;;;;10.38;5.53;;;;;;;;;;5052412;28;20112;-35
2021/12/19 04:31:36;;;;;;;10.85;4.13;;;;;;;;;;5050999;28;20025;-36
2021/12/19 04:34:01;;;;;;;8.38;4.95;;;;;;;;;;5052555;28;20090;-36
2021/12/19 04:36:32;;;;;;;13.15;4.82;;;;;;;;;;5052373;28;20040;-35
2021/12/19 04:39:22;;;;;;;9.75;4.63;;;;;;;;;;5052236;28;20177;-36
2021/12/19 04:57:34;;;;;;;8.82;4.60;;;;;;;;;;5051965;28;20041;-35
2021/12/19 05:00:07;;;;;;;7.65;4.05;;;;;;;;;;5051828;28;20876;-35
2021/12/19 05:02:45;;;;;;;6.72;3.33;;;;;;;;;;5051664;28;20025;-35
2021/12/19 05:15:54;;;;;;;7.40;3.92;;;;;;;;;;5051600;28;20401;-36
2021/12/19 05:18:23;;;;;;;6.68;4.18;;;;;;;;;;5051767;28;20028;-36
2021/12/19 05:20:56;;;;;;;5.38;3.47;;;;;;;;;;5051380;28;20029;-36
2021/12/19 05:26:08;;;;;;;6.70;3.55;;;;;;;;;;5040111;28;20119;-36
2021/12/19 05:28:33;;;;;;;4.60;2.95;;;;;;;;;;5051571;28;20122;-35
2021/12/19 05:30:59;;;;;;;10.55;4.95;;;;;;;;;;5051406;28;20426;-35
2021/12/19 05:33:24;;;;;;;9.98;3.88;;;;;;;;;;5051407;28;20020;-36
2021/12/19 05:47:02;;;;;;;8.00;4.60;;;;;;;;;;5051212;28;20039;-35
2021/12/19 05:49:28;;;;;;;9.02;4.70;;;;;;;;;;5051055;28;20029;-35
2021/12/19 05:51:53;;;;;;;5.47;3.90;;;;;;;;;;5049779;28;20033;-36
2021/12/19 05:54:19;;;;;;;7.50;4.25;;;;;;;;;;5051316;28;20128;-36
2021/12/19 05:56:44;;;;;;;6.22;4.28;;;;;;;;;;5051057;28;20067;-35
2021/12/19 05:59:11;;;;;;;6.68;3.85;;;;;;;;;;5051134;28;20083;-36
2021/12/19 06:01:38;;;;;;;3.90;2.75;;;;;;;;;;5050891;28;20065;-36
2021/12/19 06:04:03;;;;;;;7.90;4.65;;;;;;;;;;5051297;28;20151;-36
2021/12/19 06:06:29;;;;;;;4.22;3.13;;;;;;;;;;5051082;28;20553;-35
2021/12/19 06:08:54;;;;;;;9.35;4.00;;;;;;;;;;5051015;28;20017;-36
2021/12/19 06:11:20;;;;;;;6.13;4.50;;;;;;;;;;5051207;28;20040;-36
2021/12/19 06:13:45;;;;;;;5.65;3.50;;;;;;;;;;5051021;28;20021;-36
2021/12/19 06:16:11;;;;;;;8.13;4.32;;;;;;;;;;5051116;28;20459;-36
2021/12/19 06:18:36;;;;;;;6.22;3.38;;;;;;;;;;5050725;28;20360;-36
2021/12/19 06:21:03;;;;;;;5.47;2.95;;;;;;;;;;5049975;28;20032;-36
2021/12/19 06:23:28;;;;;;;6.55;3.90;;;;;;;;;;5050978;28;20060;-36
2021/12/19 06:25:54;;;;;;;7.32;2.90;;;;;;;;;;5050825;28;20434;-35
2021/12/19 06:28:21;;;;;;;10.73;3.97;;;;;;;;;;5050781;28;20054;-35
2021/12/19 06:30:47;;;;;;;6.55;3.90;;;;;;;;;;5050520;28;20036;-36
2021/12/19 06:33:12;;;;;;;8.65;4.55;;;;;;;;;;5049516;28;20021;-35
2021/12/19 06:35:38;;;;;;;6.32;3.67;;;;;;;;;;5052340;28;20116;-36
2021/12/19 06:38:04;;;;;;;4.22;2.88;;;;;;;;;;5054726;28;20097;-35
2021/12/19 06:40:29;;;;;;;8.20;3.58;;;;;;;;;;5054169;28;20045;-35
2021/12/19 06:42:55;;;;;;;7.85;3.35;;;;;;;;;;5054485;28;20083;-36
2021/12/19 06:45:20;;;;;;;6.60;5.03;;;;;;;;;;5054348;28;20040;-36
2021/12/19 06:47:46;;;;;;;8.02;4.70;;;;;;;;;;5054272;28;20017;-36
2021/12/19 06:50:12;;;;;;;4.57;3.05;;;;;;;;;;5054766;28;20371;-41
2021/12/19 06:52:39;;;;;;;40.42;13.98;;;;;;;;;;5052811;28;20017;-36
2021/12/19 06:55:05;;;;;;;14.30;8.13;;;;;;;;;;5054172;28;20107;-36
2021/12/19 06:57:31;;;;;;;27.48;12.05;;;;;;;;;;5054094;28;20467;-36
2021/12/19 06:59:57;;;;;;;9.05;4.15;;;;;;;;;;5054312;28;20047;-36
2021/12/19 07:02:25;;;;;;;34.60;16.95;;;;;;;;;;5054237;28;20013;-37
2021/12/19 07:04:51;;;;;;;8.50;4.75;;;;;;;;;;5054032;28;20040;-35
2021/12/19 07:07:16;;;;;;;8.52;3.83;;;;;;;;;;5053944;28;20013;-36
2021/12/19 07:09:42;;;;;;;7.05;3.08;;;;;;;;;;5052808;28;20033;-35
2021/12/19 07:12:08;;;;;;;10.77;4.35;;;;;;;;;;5053847;28;20096;-35
2021/12/19 07:14:33;;;;;;;5.95;4.50;;;;;;;;;;5053859;28;20123;-35
2021/12/19 07:16:59;;;;;;;8.60;3.45;;;;;;;;;;5054028;28;20131;-36
2021/12/19 07:19:24;;;;;;;7.30;4.47;;;;;;;;;;5053591;28;20025;-35
2021/12/19 07:21:50;;;;;;;10.18;4.57;;;;;;;;;;5053673;28;20020;-35
2021/12/19 07:24:16;;;;;;;10.93;4.15;;;;;;;;;;5053932;28;20029;-35
2021/12/19 07:26:41;;;;;;;12.98;4.80;;;;;;;;;;5053487;28;20051;-36
2021/12/19 07:29:07;;;;;;;8.38;4.38;;;;;;;;;;5053937;28;20056;-36
2021/12/19 07:31:36;;;;;;;8.30;5.07;;;;;;;;;;5053357;28;20029;-36
2021/12/19 07:34:02;;;;;;;7.78;5.57;;;;;;;;;;5053676;28;20095;-35
2021/12/19 07:36:35;;;;;;;7.53;4.35;;;;;;;;;;5053641;28;20052;-36
2021/12/19 07:39:08;;;;;;;9.15;4.70;;;;;;;;;;5053251;28;20039;-36
2021/12/19 07:41:34;;;;;;;8.25;4.60;;;;;;;;;;5053433;28;20025;-36
2021/12/19 07:43:59;;;;;;;10.10;6.22;;;;;;;;;;5053310;28;20029;-35
2021/12/19 07:46:25;;;;;;;10.30;5.00;;;;;;;;;;5052909;28;20057;-35
2021/12/19 07:48:50;;;;;;;23.52;11.95;;;;;;;;;;5053199;28;20021;-35
2021/12/19 07:51:16;;;;;;;10.15;6.10;;;;;;;;;;5053193;28;20108;-35
2021/12/19 07:53:42;;;;;;;15.82;7.15;;;;;;;;;;5052906;28;20024;-36
2021/12/19 07:56:07;;;;;;;8.23;4.70;;;;;;;;;;5053026;28;20037;-36
2021/12/19 07:58:32;;;;;;;10.13;4.90;;;;;;;;;;5052906;28;20013;-35
2021/12/19 08:00:58;;;;;;;6.82;4.25;;;;;;;;;;5053260;28;20063;-35
2021/12/19 08:03:24;;;;;;;6.07;3.92;;;;;;;;;;5052794;28;20017;-36
2021/12/19 08:05:50;;;;;;;12.60;5.35;;;;;;;;;;5052886;28;20033;-36
2021/12/19 08:08:18;;;;;;;11.32;4.85;;;;;;;;;;5052839;28;20028;-36
2021/12/19 08:13:09;;;;;;;4.88;3.38;;;;;;;;;;5052674;28;20142;-35
2021/12/19 08:15:36;;;;;;;10.90;4.40;;;;;;;;;;5052447;28;20048;-35
2021/12/19 08:18:02;;;;;;;10.18;4.68;;;;;;;;;;5052589;28;20048;-35
2021/12/19 08:20:30;;;;;;;8.80;3.80;;;;;;;;;;5052509;28;20041;-36
2021/12/19 08:22:56;;;;;;;7.55;4.50;;;;;;;;;;5052515;28;20033;-35
2021/12/19 08:25:23;;;;;;;18.17;4.75;;;;;;;;;;5052708;28;20064;-35
2021/12/19 08:27:48;;;;;;;10.95;4.68;;;;;;;;;;5052652;28;20424;-36
2021/12/19 08:30:14;;;;;;;6.15;3.47;;;;;;;;;;5052321;28;20073;-35
2021/12/19 08:32:40;;;;;;;8.75;4.53;;;;;;;;;;5052463;28;20028;-35
2021/12/19 08:35:06;;;;;;;6.88;4.03;;;;;;;;;;5052197;28;20384;-35
2021/12/19 08:37:32;;;;;;;6.13;4.10;;;;;;;;;;5052433;28;20444;-36
2021/12/19 08:39:57;;;;;;;7.57;3.83;;;;;;;;;;5052114;28;20140;-36
2021/12/19 08:42:23;;;;;;;5.05;3.30;;;;;;;;;;5052159;28;20391;-36
2021/12/19 08:44:49;;;;;;;6.15;4.10;;;;;;;;;;5052256;28;20025;-36
2021/12/19 08:47:14;;;;;;;9.70;4.47;;;;;;;;;;5052305;28;20155;-35
2021/12/19 08:49:40;;;;;;;7.18;4.68;;;;;;;;;;5052150;28;20495;-37
2021/12/19 08:52:07;;;;;;;8.35;4.15;;;;;;;;;;5052204;28;20013;-35
2021/12/19 08:54:33;;;;;;;8.07;3.42;;;;;;;;;;5052035;28;20044;-36
2021/12/19 08:56:58;;;;;;;5.18;3.63;;;;;;;;;;5052130;28;20434;-35
2021/12/19 08:59:25;;;;;;;6.13;4.20;;;;;;;;;;5051185;28;20119;-36
2021/12/19 09:01:50;;;;;;;4.10;2.72;;;;;;;;;;5052124;28;20418;-36
2021/12/19 09:04:16;;;;;;;5.47;3.60;;;;;;;;;;5051787;28;20040;-36
2021/12/19 09:06:41;;;;;;;8.30;3.35;;;;;;;;;;5051866;28;20025;-35
2021/12/19 09:09:08;;;;;;;8.40;3.15;;;;;;;;;;5051753;28;20490;-36
2021/12/19 09:11:34;;;;;;;5.72;2.78;;;;;;;;;;5051545;28;20460;-36
2021/12/19 09:13:59;;;;;;;4.97;2.90;;;;;;;;;;5051527;28;20044;-36
2021/12/19 09:16:25;;;;;;;5.53;3.17;;;;;;;;;;5051868;28;20021;-37
2021/12/19 09:18:51;;;;;;;8.25;3.83;;;;;;;;;;5051796;28;20455;-35
2021/12/19 09:21:16;;;;;;;7.55;4.28;;;;;;;;;;5051739;28;20037;-36
2021/12/19 09:23:41;;;;;;;5.75;4.22;;;;;;;;;;5051405;28;20029;-36
2021/12/19 09:26:07;;;;;;;8.88;4.40;;;;;;;;;;5051500;28;20096;-36
2021/12/19 09:28:33;;;;;;;6.75;4.30;;;;;;;;;;5051239;28;20037;-36
2021/12/19 09:30:58;;;;;;;11.20;3.88;;;;;;;;;;5051635;28;20028;-36
2021/12/19 09:33:24;;;;;;;10.55;4.63;;;;;;;;;;5051344;28;20051;-35
2021/12/19 09:35:50;;;;;;;11.02;4.55;;;;;;;;;;5051194;28;20226;-36
2021/12/19 09:38:15;;;;;;;6.15;3.95;;;;;;;;;;5051305;28;20087;-36
2021/12/19 09:40:43;;;;;;;5.70;2.88;;;;;;;;;;5050959;28;20091;-36
2021/12/19 09:43:31;;;;;;;8.00;2.97;;;;;;;;;;5051314;28;20500;-36
2021/12/19 09:45:57;;;;;;;5.88;3.38;;;;;;;;;;5051212;28;20115;-36
2021/12/19 09:48:24;;;;;;;7.47;3.25;;;;;;;;;;5051393;28;20053;-36
2021/12/19 09:50:50;;;;;;;7.13;3.28;;;;;;;;;;5050977;28;20127;-36
2021/12/19 09:53:15;;;;;;;7.78;3.20;;;;;;;;;;5051119;28;20029;-36
2021/12/19 09:55:41;;;;;;;7.65;4.30;;;;;;;;;;5050996;28;20045;-35
2021/12/19 09:58:06;;;;;;;6.07;4.10;;;;;;;;;;5051144;28;20040;-36
2021/12/19 10:00:32;;;;;;;5.63;3.45;;;;;;;;;;5050998;28;20115;-36
2021/12/19 10:02:57;;;;;;;7.75;4.47;;;;;;;;;;5051374;28;20051;-36
2021/12/19 10:05:25;;;;;;;6.82;2.88;;;;;;;;;;5051014;28;20462;-36
2021/12/19 10:07:52;;;;;;;9.88;4.07;;;;;;;;;;5050931;28;20029;-36
2021/12/19 10:10:25;;;;;;;7.05;3.58;;;;;;;;;;5053867;28;20120;-36
2021/12/19 10:12:52;;;;;;;6.05;3.10;;;;;;;;;;5054955;28;20441;-35
2021/12/19 10:15:41;;;;;;;4.97;3.00;;;;;;;;;;5054974;28;20037;-36
2021/12/19 10:18:11;;;;;;;4.43;3.35;;;;;;;;;;5055138;28;20033;-36
2021/12/19 10:20:41;;;;;;;5.55;3.53;;;;;;;;;;5054705;28;20036;-36
2021/12/19 10:23:26;;;;;;;7.70;4.75;;;;;;;;;;5054806;28;20039;-36
2021/12/19 10:26:01;;;;;;;7.60;3.53;;;;;;;;;;5055066;28;20033;-36
2021/12/19 10:28:28;;;;;;;6.40;4.05;;;;;;;;;;5054640;28;20490;-36
2021/12/19 10:30:54;;;;;;;6.18;3.65;;;;;;;;;;5053395;28;20467;-36
2021/12/19 10:33:23;;;;;;;4.45;3.08;;;;;;;;;;5054881;28;20091;-38
2021/12/19 10:35:53;;;;;;;8.93;3.40;;;;;;;;;;5054374;28;20528;-37
2021/12/19 10:38:25;;;;;;;7.85;4.38;;;;;;;;;;5054842;28;20487;-36
2021/12/19 10:40:52;;;;;;;5.43;3.03;;;;;;;;;;5054198;28;20074;-36
2021/12/19 10:43:19;;;;;;;6.05;3.17;;;;;;;;;;5054583;28;20056;-36
2021/12/19 10:45:48;;;;;;;5.13;2.78;;;;;;;;;;5054381;28;20040;-36
2021/12/19 10:48:15;;;;;;;5.93;3.35;;;;;;;;;;5054646;28;20426;-36
2021/12/19 10:50:41;;;;;;;3.83;2.95;;;;;;;;;;5054168;28;20033;-35
2021/12/19 10:53:07;;;;;;;3.95;2.63;;;;;;;;;;5054207;28;20103;-35
2021/12/19 10:55:32;;;;;;;7.65;2.80;;;;;;;;;;5054030;28;20045;-35
2021/12/19 10:57:58;;;;;;;5.63;3.13;;;;;;;;;;5054185;28;20468;-39
2021/12/19 11:00:25;;;;;;;7.82;3.88;;;;;;;;;;5054355;28;20036;-35
2021/12/19 11:02:50;;;;;;;6.00;3.95;;;;;;;;;;5053918;28;20021;-35
2021/12/19 11:05:35;;;;;;;11.48;4.35;;;;;;;;;;5053951;28;20048;-35
2021/12/19 11:08:06;;;;;;;7.90;3.70;;;;;;;;;;5054268;28;20052;-36
2021/12/19 11:10:32;;;;;;;12.70;3.58;;;;;;;;;;5054061;28;20029;-36
2021/12/19 11:13:27;;;;;;;9.32;4.55;;;;;;;;;;5053903;28;20024;-36
2021/12/19 11:15:53;;;;;;;9.57;3.33;;;;;;;;;;5045065;28;20492;-36
2021/12/19 11:18:18;;;;;;;9.10;4.47;;;;;;;;;;5054091;28;20082;-36
2021/12/19 11:20:44;;;;;;;6.80;4.28;;;;;;;;;;5052856;28;20560;-36
2021/12/19 11:23:09;;;;;;;12.90;5.10;;;;;;;;;;5053653;28;20043;-36
2021/12/19 11:25:35;;;;;;;7.13;3.20;;;;;;;;;;5052372;28;20039;-35
2021/12/19 11:28:02;;;;;;;8.27;4.10;;;;;;;;;;5053894;28;20053;-35
2021/12/19 11:30:27;;;;;;;9.60;4.65;;;;;;;;;;5053717;28;20036;-36
2021/12/19 11:33:12;;;;;;;6.32;3.55;;;;;;;;;;5053786;28;20025;-36
2021/12/19 11:35:41;;;;;;;8.50;4.35;;;;;;;;;;5053516;28;20137;-36
2021/12/19 11:38:09;;;;;;;7.93;4.70;;;;;;;;;;5053692;28;20479;-36
2021/12/19 11:40:36;;;;;;;8.85;4.53;;;;;;;;;;5053190;28;20045;-36
2021/12/19 11:43:04;;;;;;;9.32;4.97;;;;;;;;;;5053322;28;20029;-36
2021/12/19 11:48:06;;;;;;;10.07;4.90;;;;;;;;;;5053316;28;20091;-36
2021/12/19 11:50:31;;;;;;;;;;;;;;;;;;5053759;28;20036;-36
2021/12/19 11:53:16;;;;;;;12.43;5.00;;;;;;;;;;5051869;28;20363;-36
2021/12/19 11:55:52;;;;;;;7.40;3.47;;;;;;;;;;5052805;28;20505;-35
2021/12/19 11:58:19;;;;;;;9.13;4.43;;;;;;;;;;5053096;28;20029;-36
2021/12/19 12:00:59;;;;;;;7.45;3.75;;;;;;;;;;5052913;28;20478;-36
2021/12/19 12:03:26;;;;;;;11.05;5.13;;;;;;;;;;5052981;28;20060;-35
2021/12/19 12:05:53;;;;;;;8.05;4.32;;;;;;;;;;5052773;28;20025;-36
2021/12/19 12:08:23;;;;;;;9.68;5.53;;;;;;;;;;5052880;28;20028;-36
2021/12/19 12:10:49;;;;;;;10.07;5.90;;;;;;;;;;5052715;28;20518;-36
2021/12/19 12:13:24;;;;;;;6.88;4.93;;;;;;;;;;5052701;28;20037;-36
2021/12/19 12:15:52;;;;;;;12.73;5.40;;;;;;;;;;5052559;28;20518;-36
2021/12/19 12:18:36;;;;;;;9.68;4.97;;;;;;;;;;5052958;28;20025;-36
2021/12/19 12:21:22;;;;;;;8.85;5.25;;;;;;;;;;5052557;28;20033;-36
2021/12/19 12:23:53;;;;;;;11.15;5.43;;;;;;;;;;5052499;28;20036;-36
2021/12/19 12:26:28;;;;;;;11.18;4.97;;;;;;;;;;5052469;28;20059;-35
2021/12/19 12:28:54;;;;;;;15.60;6.47;;;;;;;;;;5052608;28;20032;-35
2021/12/19 12:31:19;;;;;;;12.95;6.45;;;;;;;;;;5052327;28;20021;-36
2021/12/19 12:33:45;;;;;;;15.43;6.20;;;;;;;;;;5051342;28;20033;-36
2021/12/19 12:36:10;;;;;;;13.13;6.15;;;;;;;;;;5052290;28;20372;-36
2021/12/19 12:38:36;;;;;;;14.43;5.43;;;;;;;;;;5052215;28;20106;-36
2021/12/19 12:41:08;;;;;;;13.38;5.75;;;;;;;;;;5051989;28;20115;-36
2021/12/19 12:43:35;;;;;;;11.15;6.03;;;;;;;;;;5052304;28;20040;-36
2021/12/19 12:46:01;;;;;;;16.08;6.00;;;;;;;;;;5050977;28;20028;-35
2021/12/19 12:48:28;;;;;;;10.43;5.00;;;;;;;;;;5052001;28;20418;-36
2021/12/19 12:50:54;;;;;;;12.98;5.47;;;;;;;;;;5051894;28;20475;-36
2021/12/19 12:53:34;;;;;;;16.55;6.53;;;;;;;;;;5052083;28;20027;-36
2021/12/19 12:56:09;;;;;;;18.17;5.68;;;;;;;;;;5050742;28;20037;-36
2021/12/19 12:58:36;;;;;;;9.75;5.90;;;;;;;;;;5052037;28;20501;-36
2021/12/19 13:01:16;;;;;;;11.77;6.20;;;;;;;;;;5051796;28;20032;-37
2021/12/19 13:03:54;;;;;;;17.17;6.93;;;;;;;;;;5051817;28;20033;-36
2021/12/19 13:06:38;;;;;;;17.92;7.55;;;;;;;;;;5052097;28;20087;-36
2021/12/19 13:09:07;;;;;;;14.60;5.78;;;;;;;;;;5051660;28;20041;-36
2021/12/19 13:11:33;;;;;;;13.32;6.95;;;;;;;;;;5051840;28;20021;-36
2021/12/19 13:14:19;;;;;;;13.05;7.43;;;;;;;;;;5051417;28;20120;-36
2021/12/19 13:17:05;;;;;;;16.17;5.97;;;;;;;;;;5051790;28;20059;-37
2021/12/19 13:19:35;;;;;;;10.02;5.10;;;;;;;;;;5044258;28;20056;-36
2021/12/19 13:22:01;;;;;;;12.82;6.93;;;;;;;;;;5051695;28;20087;-36
2021/12/19 13:24:27;;;;;;;16.90;7.18;;;;;;;;;;5051417;28;20033;-35
2021/12/19 13:27:09;;;;;;;11.82;5.93;;;;;;;;;;5052682;28;20031;-36
2021/12/19 13:29:36;;;;;;;13.80;6.30;;;;;;;;;;5048708;28;20480;-36
2021/12/19 13:32:20;;;;;;;15.10;6.57;;;;;;;;;;5030257;28;20032;-36
2021/12/19 13:34:46;;;;;;;16.88;7.05;;;;;;;;;;5031552;28;20033;-35
2021/12/19 13:37:12;;;;;;;12.93;6.35;;;;;;;;;;5030456;28;20518;-36
2021/12/19 13:39:38;;;;;;;11.43;5.43;;;;;;;;;;5029912;28;20115;-36
2021/12/19 13:42:07;;;;;;;13.77;6.38;;;;;;;;;;5031388;28;20088;-35
2021/12/19 13:44:33;;;;;;;12.63;6.00;;;;;;;;;;5030867;28;20075;-35
2021/12/19 13:47:08;;;;;;;9.93;4.55;;;;;;;;;;5031363;28;20104;-36
2021/12/19 13:49:34;;;;;;;11.57;5.63;;;;;;;;;;5031076;28;20141;-36
2021/12/19 13:52:00;;;;;;;12.93;5.72;;;;;;;;;;5031225;28;20022;-36
2021/12/19 13:54:31;;;;;;;10.32;5.80;;;;;;;;;;5029870;28;20046;-36
2021/12/19 13:56:57;;;;;;;12.68;5.70;;;;;;;;;;5031531;28;20108;-36
2021/12/19 13:59:24;;;;;;;14.07;6.70;;;;;;;;;;5031122;28;20497;-35
2021/12/19 14:01:50;;;;;;;13.77;6.97;;;;;;;;;;5031332;28;20035;-36
2021/12/19 14:04:18;;;;;;;13.23;6.78;;;;;;;;;;5031385;28;20488;-36
2021/12/19 14:06:45;;;;;;;19.23;7.57;;;;;;;;;;5030960;28;20101;-37
2021/12/19 14:09:12;;;;;;;19.65;8.25;;;;;;;;;;5031064;28;20036;-35
2021/12/19 14:11:43;;;;;;;15.85;7.43;;;;;;;;;;5030959;28;20126;-36
2021/12/19 14:14:32;;;;;;;12.65;7.15;;;;;;;;;;5030974;28;20479;-36
2021/12/19 14:16:59;;;;;;;13.82;6.03;;;;;;;;;;5031178;28;20053;-36
2021/12/19 14:19:29;;;;;;;14.00;6.07;;;;;;;;;;5031207;28;20021;-37
2021/12/19 14:22:06;;;;;;;12.95;6.82;;;;;;;;;;5030927;28;20453;-36
2021/12/19 14:24:32;;;;;;;14.75;6.43;;;;;;;;;;5030850;28;20033;-36
2021/12/19 14:27:03;;;;;;;12.63;6.10;;;;;;;;;;5031005;28;20026;-36
2021/12/19 14:29:29;;;;;;;15.40;6.70;;;;;;;;;;5030919;28;20090;-36
2021/12/19 14:31:56;;;;;;;13.88;6.97;;;;;;;;;;5031107;28;20334;-36
2021/12/19 14:34:25;;;;;;;20.65;7.57;;;;;;;;;;5030781;28;20056;-36
2021/12/19 14:36:51;;;;;;;13.75;6.00;;;;;;;;;;5030804;28;20017;-36
2021/12/19 14:39:21;;;;;;;20.08;7.72;;;;;;;;;;5030575;28;20045;-36
2021/12/19 14:41:46;;;;;;;17.85;7.53;;;;;;;;;;5030734;28;20117;-36
2021/12/19 14:44:22;;;;;;;13.27;6.55;;;;;;;;;;5031098;28;20121;-36
2021/12/19 14:46:49;;;;;;;20.63;9.68;;;;;;;;;;5029440;28;20044;-35
2021/12/19 14:49:16;;;;;;;18.80;7.65;;;;;;;;;;5030671;28;20366;-36
2021/12/19 14:51:41;;;;;;;15.13;7.63;;;;;;;;;;5030914;28;20026;-36
2021/12/19 14:54:08;;;;;;;15.02;8.40;;;;;;;;;;5030985;28;20360;-36
2021/12/19 14:56:34;;;;;;;15.63;6.65;;;;;;;;;;5032292;28;20361;-36
2021/12/19 14:59:02;;;;;;;16.33;7.40;;;;;;;;;;5034215;28;20022;-36
2021/12/19 15:01:35;;;;;;;19.90;7.50;;;;;;;;;;5034532;28;20091;-35
2021/12/19 15:04:06;;;;;;;11.85;6.88;;;;;;;;;;5033123;28;20032;-35
2021/12/19 15:06:38;;;;;;;14.50;7.10;;;;;;;;;;5034082;28;20025;-36
2021/12/19 15:09:07;;;;;;;12.47;7.37;;;;;;;;;;5034386;28;20056;-36
2021/12/19 15:11:34;;;;;;;15.48;8.27;;;;;;;;;;5033898;28;20017;-35
2021/12/19 15:13:59;;;;;;;18.80;8.68;;;;;;;;;;5033952;28;20026;-35
2021/12/19 15:16:25;;;;;;;20.48;7.53;;;;;;;;;;5034246;28;20028;-36
2021/12/19 15:18:51;;;;;;;16.10;7.97;;;;;;;;;;5033792;28;20103;-37
2021/12/19 15:21:16;;;;;;;15.35;8.23;;;;;;;;;;5033874;28;20025;-36
2021/12/19 15:23:42;;;;;;;15.73;8.75;;;;;;;;;;5033950;28;20032;-36
2021/12/19 15:26:14;;;;;;;15.95;9.20;;;;;;;;;;5034075;28;20028;-36
2021/12/19 15:28:40;;;;;;;14.80;7.93;;;;;;;;;;5033613;28;20040;-36
2021/12/19 15:31:05;;;;;;;15.73;8.05;;;;;;;;;;5033649;28;20025;-36
2021/12/19 15:33:31;;;;;;;21.38;8.30;;;;;;;;;;5032715;28;20040;-36
2021/12/19 15:35:56;;;;;;;17.48;8.75;;;;;;;;;;5033409;28;20380;-36
2021/12/19 15:38:22;;;;;;;18.40;8.00;;;;;;;;;;5033751;28;20040;-36
2021/12/19 15:40:47;;;;;;;19.65;7.13;;;;;;;;;;5033303;28;20313;-36
2021/12/19 15:43:13;;;;;;;25.15;9.25;;;;;;;;;;5033768;28;20017;-36
2021/12/19 15:45:39;;;;;;;13.50;7.47;;;;;;;;;;5033546;28;20816;-36
2021/12/19 15:48:05;;;;;;;12.43;6.68;;;;;;;;;;5033357;28;20060;-36